Time;durP1;ratioP1;P1;durP2;ratioP2;P2;SDS_P1;SDS_P2;PMS_P1;PMS_P2;Temp;Humidity;BMP_temperature;BMP_pressure;BME280_temperature;BME280_humidity;BME280_pressure;Samples;Min_cycle;Max_cycle;Signal;HPM_P1;HPM_P2
2022/07/06 00:01:40;;;;;;;8.27;3.55;;;;;;;21.52;71.03;100899.75;4979368;28;102979;-50
2022/07/06 00:04:07;;;;;;;12.73;3.25;;;;;;;21.52;70.52;100898.97;4988077;28;102129;-49
2022/07/06 00:06:35;;;;;;;3.30;3.00;;;;;;;21.51;70.81;100905.66;4989445;28;103919;-48
2022/07/06 00:09:03;;;;;;;2.95;2.75;;;;;;;21.52;70.81;100898.97;4976804;28;104559;-49
2022/07/06 00:11:32;;;;;;;4.88;3.20;;;;;;;21.52;70.75;100907.25;4993154;28;102266;-52
2022/07/06 00:13:59;;;;;;;3.03;2.83;;;;;;;21.51;70.55;100897.34;4995648;28;102154;-50
2022/07/06 00:16:26;;;;;;;6.63;3.25;;;;;;;21.52;70.77;100898.97;4987435;28;103967;-49
2022/07/06 00:18:52;;;;;;;3.45;3.15;;;;;;;21.52;70.72;100896.19;4984375;28;102166;-49
2022/07/06 00:21:19;;;;;;;4.18;3.03;;;;;;;21.50;70.68;100896.53;4991393;28;104380;-50
2022/07/06 00:23:45;;;;;;;3.33;3.03;;;;;;;21.51;71.11;100905.66;4994636;28;102221;-51
2022/07/06 00:26:14;;;;;;;3.40;3.10;;;;;;;21.50;70.85;100907.63;4979293;28;103980;-50
2022/07/06 00:28:40;;;;;;;3.40;3.10;;;;;;;21.51;70.89;100905.66;4981701;28;102547;-49
2022/07/06 00:31:07;;;;;;;3.63;3.33;;;;;;;21.50;70.77;100901.28;4975170;28;102438;-49
2022/07/06 00:33:33;;;;;;;3.20;2.90;;;;;;;21.50;70.66;100902.09;4978493;28;102639;-49
2022/07/06 00:36:00;;;;;;;3.08;2.80;;;;;;;21.49;70.59;100902.41;4988582;28;104074;-49
2022/07/06 00:38:27;;;;;;;3.10;2.80;;;;;;;21.50;70.57;100895.75;4991735;28;102687;-49
2022/07/06 00:40:53;;;;;;;4.47;3.10;;;;;;;21.50;70.69;100892.97;4994451;28;102302;-51
2022/07/06 00:43:21;;;;;;;3.83;2.75;;;;;;;21.50;70.75;100892.97;4992292;28;102410;-48
2022/07/06 00:45:47;;;;;;;2.90;2.70;;;;;;;21.50;70.98;100891.00;4987456;28;103882;-48
2022/07/06 00:48:14;;;;;;;3.08;2.78;;;;;;;21.49;70.45;100894.09;4987192;28;102209;-49
2022/07/06 00:50:41;;;;;;;3.38;3.00;;;;;;;21.50;70.91;100891.00;4994437;28;102335;-50
2022/07/06 00:53:09;;;;;;;3.33;2.95;;;;;;;21.49;70.80;100894.09;4984594;28;102386;-49
2022/07/06 00:55:41;;;;;;;3.35;2.80;;;;;;;21.50;70.86;100895.75;4989784;28;103921;-50
2022/07/06 00:58:09;;;;;;;3.47;3.13;;;;;;;21.49;70.78;100888.56;4996401;28;102182;-51
2022/07/06 01:00:40;;;;;;;6.55;3.45;;;;;;;21.49;70.76;100889.41;4997419;28;102349;-49
2022/07/06 01:03:06;;;;;;;4.13;2.80;;;;;;;21.49;70.58;100889.41;4997008;28;102140;-49
2022/07/06 01:05:33;;;;;;;3.15;2.85;;;;;;;21.48;70.51;100882.22;4996129;28;103899;-49
2022/07/06 01:08:00;;;;;;;3.63;3.28;;;;;;;21.48;70.56;100886.94;4988481;28;102056;-52
2022/07/06 01:10:27;;;;;;;4.18;3.33;;;;;;;21.48;70.64;100893.28;4997754;28;102462;-48
2022/07/06 01:12:56;;;;;;;5.05;3.30;;;;;;;21.49;70.65;100896.88;4998078;28;102225;-49
2022/07/06 01:15:23;;;;;;;;;;;;;;;21.49;70.50;100894.09;4985459;28;104144;-49
2022/07/06 01:17:51;;;;;;;3.55;3.15;;;;;;;21.49;70.53;100899.63;4993136;28;102301;-48
2022/07/06 01:20:21;;;;;;;3.03;2.72;;;;;;;21.50;70.61;100896.53;4992273;28;102294;-49
2022/07/06 01:22:50;;;;;;;3.78;3.20;;;;;;;21.49;70.41;100888.56;4996086;28;102189;-52
2022/07/06 01:25:17;;;;;;;3.28;2.97;;;;;;;21.48;70.40;100893.28;4989618;28;103844;-51
2022/07/06 01:27:44;;;;;;;4.15;2.67;;;;;;;21.49;70.29;100894.09;4996262;28;102351;-48
2022/07/06 01:30:14;;;;;;;3.70;3.03;;;;;;;21.48;70.41;100892.50;4996360;28;102118;-49
2022/07/06 01:32:41;;;;;;;3.80;2.92;;;;;;;21.48;70.25;100884.19;4980360;28;102317;-49
2022/07/06 01:35:10;;;;;;;3.33;3.03;;;;;;;21.48;69.99;100892.50;4994271;28;104089;-51
2022/07/06 01:37:39;;;;;;;3.35;2.85;;;;;;;21.47;70.33;100886.16;4994663;28;102301;-49
2022/07/06 01:40:08;;;;;;;2.83;2.47;;;;;;;21.47;70.05;100883.38;4995877;28;102258;-49
2022/07/06 01:42:35;;;;;;;4.05;2.67;;;;;;;21.47;70.13;100885.34;4997022;28;102311;-50
2022/07/06 01:45:02;;;;;;;3.78;3.05;;;;;;;21.47;69.87;100891.69;4995164;28;103805;-50
2022/07/06 01:47:29;;;;;;;4.35;2.67;;;;;;;21.47;69.99;100885.34;4994034;28;102220;-49
2022/07/06 01:49:59;;;;;;;3.47;2.80;;;;;;;21.47;70.23;100893.66;4995026;28;103987;-51
2022/07/06 01:52:26;;;;;;;3.50;3.20;;;;;;;21.46;69.80;100890.06;4980242;28;102416;-49
2022/07/06 01:54:54;;;;;;;3.90;3.22;;;;;;;21.47;69.88;100900.00;4991325;28;103897;-49
2022/07/06 01:57:21;;;;;;;5.05;2.70;;;;;;;21.47;69.69;100897.22;4994802;28;102314;-49
2022/07/06 01:59:47;;;;;;;3.80;2.90;;;;;;;21.47;69.63;100897.22;4987613;28;102537;-49
2022/07/06 02:02:15;;;;;;;3.17;2.92;;;;;;;21.47;70.06;100888.09;4978278;28;102514;-51
2022/07/06 02:04:41;;;;;;;2.88;2.58;;;;;;;21.45;70.09;100893.16;4990623;28;103864;-51
2022/07/06 02:07:08;;;;;;;3.03;2.72;;;;;;;21.46;69.81;100886.50;4988264;28;102258;-51
2022/07/06 02:09:34;;;;;;;3.95;2.92;;;;;;;21.46;69.72;100878.19;4975954;28;101873;-50
2022/07/06 02:12:05;;;;;;;3.78;3.47;;;;;;;21.45;69.32;100880.13;4993581;28;102460;-51
2022/07/06 02:14:31;;;;;;;;;;;;;;;21.46;69.30;100880.97;4995601;28;103956;-52
2022/07/06 02:16:58;;;;;;;3.03;2.72;;;;;;;21.46;69.50;100878.19;4991853;28;102122;-51
2022/07/06 02:19:24;;;;;;;3.40;3.05;;;;;;;21.46;69.51;100884.53;4986094;28;102387;-50
2022/07/06 02:21:51;;;;;;;4.32;2.70;;;;;;;21.47;69.76;100891.69;4996676;28;102383;-50
2022/07/06 02:24:18;;;;;;;3.80;3.00;;;;;;;21.46;69.67;100890.06;4977885;28;103934;-49
2022/07/06 02:26:44;;;;;;;3.20;2.90;;;;;;;21.46;69.50;100879.00;4994960;28;105696;-48
2022/07/06 02:29:12;;;;;;;3.00;2.70;;;;;;;21.46;69.50;100876.22;4991104;28;102170;-48
2022/07/06 02:31:39;;;;;;;5.13;2.88;;;;;;;21.46;69.57;100878.19;4997229;28;102189;-50
2022/07/06 02:34:05;;;;;;;2.80;2.60;;;;;;;21.46;69.64;100869.88;4983791;28;103891;-50
2022/07/06 02:36:32;;;;;;;3.75;3.30;;;;;;;21.45;69.20;100871.81;4990150;28;102051;-49
2022/07/06 02:38:58;;;;;;;4.43;2.80;;;;;;;21.46;69.97;100862.38;4991430;28;102206;-48
2022/07/06 02:41:25;;;;;;;2.88;2.63;;;;;;;21.45;70.32;100871.00;4995922;28;102253;-49
2022/07/06 02:43:52;;;;;;;4.00;2.85;;;;;;;21.44;69.64;100872.19;4976822;28;104112;-49
2022/07/06 02:46:20;;;;;;;3.00;2.80;;;;;;;21.46;70.12;100878.19;4991568;28;102251;-48
2022/07/06 02:48:46;;;;;;;3.03;2.73;;;;;;;21.46;69.80;100872.66;4993598;28;102342;-49
2022/07/06 02:51:15;;;;;;;2.92;2.60;;;;;;;21.46;70.11;100878.19;4989619;28;102419;-50
2022/07/06 02:53:41;;;;;;;3.15;2.85;;;;;;;21.44;70.01;100866.63;4989654;28;103850;-49
2022/07/06 02:56:08;;;;;;;3.10;2.83;;;;;;;21.44;70.09;100866.63;4985461;28;101896;-51
2022/07/06 02:58:34;;;;;;;2.88;2.58;;;;;;;21.45;70.19;100871.81;4983987;28;102188;-48
2022/07/06 03:01:01;;;;;;;4.50;2.80;;;;;;;21.45;70.41;100871.00;4982695;28;102441;-50
2022/07/06 03:03:29;;;;;;;2.97;2.75;;;;;;;21.44;70.54;100869.41;4988915;28;103991;-49
2022/07/06 03:05:56;;;;;;;2.90;2.55;;;;;;;21.44;70.96;100869.41;4986807;28;102342;-50
2022/07/06 03:08:23;;;;;;;3.25;2.80;;;;;;;21.45;70.71;100868.25;4987777;28;102136;-49
2022/07/06 03:10:51;;;;;;;2.67;2.47;;;;;;;21.45;70.95;100871.00;4992722;28;102144;-50
2022/07/06 03:13:18;;;;;;;3.00;2.80;;;;;;;21.45;70.90;100865.47;4985445;28;104080;-50
2022/07/06 03:15:44;;;;;;;3.40;2.58;;;;;;;21.47;70.68;100868.72;4993439;28;102451;-49
2022/07/06 03:18:11;;;;;;;3.28;2.92;;;;;;;21.45;70.53;100860.75;4987620;28;102553;-50
2022/07/06 03:20:39;;;;;;;3.00;2.70;;;;;;;21.47;70.83;100868.72;4994809;28;102185;-49
2022/07/06 03:23:05;;;;;;;2.88;2.67;;;;;;;21.48;70.48;100867.56;4980672;28;104244;-49
2022/07/06 03:25:32;;;;;;;2.83;2.47;;;;;;;21.46;70.65;100862.38;4992894;28;102374;-51
2022/07/06 03:27:59;;;;;;;4.55;2.50;;;;;;;21.48;70.66;100864.81;4984040;28;102206;-51
2022/07/06 03:30:26;;;;;;;3.38;2.42;;;;;;;21.49;70.50;100866.41;4988311;28;101947;-49
2022/07/06 03:32:52;;;;;;;3.28;2.47;;;;;;;21.49;70.91;100869.19;4993596;28;103410;-48
2022/07/06 03:35:19;;;;;;;3.45;2.60;;;;;;;21.49;70.68;100871.94;4976888;28;102556;-48
2022/07/06 03:37:47;;;;;;;3.70;2.80;;;;;;;21.49;70.73;100861.72;4983908;28;102798;-48
2022/07/06 03:40:14;;;;;;;2.97;2.73;;;;;;;21.50;70.73;100863.31;4995111;28;104437;-50
2022/07/06 03:42:41;;;;;;;2.90;2.40;;;;;;;21.51;70.80;100870.47;4992684;28;103950;-49
2022/07/06 03:45:09;;;;;;;2.72;2.53;;;;;;;21.50;70.79;100873.59;4992286;28;102094;-50
2022/07/06 03:47:37;;;;;;;2.65;2.45;;;;;;;21.50;71.20;100868.84;4971179;28;105909;-49
2022/07/06 03:50:04;;;;;;;3.28;2.38;;;;;;;21.51;70.76;100869.66;4984278;28;102192;-50
2022/07/06 03:52:30;;;;;;;3.08;2.80;;;;;;;21.51;70.97;100869.66;4992003;28;104201;-48
2022/07/06 03:54:58;;;;;;;3.03;2.70;;;;;;;21.51;71.01;100872.44;4976080;28;102665;-49
2022/07/06 03:57:25;;;;;;;2.43;2.20;;;;;;;21.51;70.95;100872.44;4981204;28;102361;-48
2022/07/06 03:59:52;;;;;;;2.97;2.63;;;;;;;21.53;71.03;100872.88;4991212;28;103657;-50
2022/07/06 04:02:19;;;;;;;2.80;2.60;;;;;;;21.52;70.83;100879.56;4994113;28;103416;-49
2022/07/06 04:04:45;;;;;;;2.65;2.45;;;;;;;21.52;71.02;100879.56;4991038;28;102463;-51
2022/07/06 04:07:12;;;;;;;4.47;2.40;;;;;;;21.53;71.07;100872.88;4979464;28;103411;-49
2022/07/06 04:09:40;;;;;;;3.35;2.55;;;;;;;21.53;71.07;100873.72;4981113;28;102195;-50
2022/07/06 04:12:08;;;;;;;2.65;2.45;;;;;;;21.54;70.96;100875.31;4990734;28;105579;-50
2022/07/06 04:14:35;;;;;;;2.85;2.58;;;;;;;21.54;70.93;100880.06;4991759;28;102291;-51
2022/07/06 04:17:51;;;;;;;3.33;2.70;;;;;;;21.55;70.83;100887.19;4977838;28;102215;-48
2022/07/06 04:19:49;;;;;;;3.22;2.65;;;;;;;21.55;70.85;100876.13;4989542;28;103038;-51
2022/07/06 04:22:15;;;;;;;2.80;2.50;;;;;;;21.56;70.84;100873.00;4993520;28;103831;-51
2022/07/06 04:24:42;;;;;;;3.03;2.83;;;;;;;21.56;70.85;100872.19;4981668;28;106189;-50
2022/07/06 04:27:10;;;;;;;3.10;2.40;;;;;;;21.56;70.86;100872.19;4990925;28;102703;-49
2022/07/06 04:29:37;;;;;;;3.03;2.63;;;;;;;21.57;70.72;100876.59;4987723;28;102165;-49
2022/07/06 04:32:04;;;;;;;2.88;2.60;;;;;;;21.57;70.77;100869.09;4982960;28;104242;-50
2022/07/06 04:34:31;;;;;;;3.80;2.55;;;;;;;21.60;70.78;100870.34;4993203;28;102073;-48
2022/07/06 04:36:58;;;;;;;2.70;2.50;;;;;;;21.60;70.73;100864.81;4990682;28;102374;-48
2022/07/06 04:39:24;;;;;;;3.00;2.78;;;;;;;21.60;70.85;100867.59;4995848;28;102295;-49
2022/07/06 04:41:51;;;;;;;2.97;2.67;;;;;;;21.61;71.01;100865.66;4994662;28;103832;-49
2022/07/06 04:44:19;;;;;;;2.78;2.50;;;;;;;21.60;70.85;100867.59;4981753;28;102609;-49
2022/07/06 04:46:45;;;;;;;2.73;2.43;;;;;;;21.62;70.83;100859.75;4992666;28;102410;-49
2022/07/06 04:49:12;;;;;;;3.05;2.83;;;;;;;21.63;70.67;100860.56;4994444;28;102615;-49
2022/07/06 04:51:39;;;;;;;3.08;2.80;;;;;;;21.63;70.80;100860.56;4995029;28;103894;-48
2022/07/06 04:54:06;;;;;;;2.88;2.67;;;;;;;21.64;70.86;100863.00;4988226;28;102556;-50
2022/07/06 04:56:33;;;;;;;2.47;2.28;;;;;;;21.65;70.84;100864.63;4986216;28;102613;-50
2022/07/06 04:59:01;;;;;;;3.20;2.85;;;;;;;21.67;70.70;100862.31;4987743;28;102368;-49
2022/07/06 05:01:30;;;;;;;2.58;2.38;;;;;;;21.68;70.61;100863.13;4988074;28;104109;-49
2022/07/06 05:03:56;;;;;;;3.20;2.65;;;;;;;21.69;70.61;100860.00;4978973;28;102332;-49
2022/07/06 05:06:23;;;;;;;2.72;2.53;;;;;;;21.69;70.77;100860.00;4983317;28;101998;-51
2022/07/06 05:08:50;;;;;;;2.50;2.30;;;;;;;21.69;70.69;100860.00;4996356;28;102197;-48
2022/07/06 05:11:16;;;;;;;3.17;2.28;;;;;;;21.71;70.75;100852.19;4990578;28;104045;-49
2022/07/06 05:13:43;;;;;;;3.00;2.70;;;;;;;21.72;70.54;100859.31;4981622;28;102625;-49
2022/07/06 05:16:09;;;;;;;2.92;2.63;;;;;;;21.73;70.71;100860.94;4983493;28;104283;-50
2022/07/06 05:18:38;;;;;;;3.22;2.50;;;;;;;21.74;70.52;100861.75;4989093;28;102484;-52
2022/07/06 05:21:04;;;;;;;3.43;2.97;;;;;;;21.76;70.54;100863.03;4993744;28;103793;-51
2022/07/06 05:23:30;;;;;;;3.15;2.67;;;;;;;21.77;70.59;100859.09;4984235;28;102277;-52
2022/07/06 05:25:57;;;;;;;2.80;2.40;;;;;;;21.78;70.54;100857.97;4985152;28;101915;-49
2022/07/06 05:28:23;;;;;;;2.85;2.63;;;;;;;21.80;70.51;100860.38;4992216;28;102292;-50
2022/07/06 05:30:50;;;;;;;3.88;2.53;;;;;;;21.80;70.42;100858.41;4986633;28;103883;-49
2022/07/06 05:33:17;;;;;;;3.33;2.65;;;;;;;21.83;70.46;100854.16;4989133;28;102295;-49
2022/07/06 05:35:45;;;;;;;2.47;2.30;;;;;;;21.84;70.24;100856.56;4988424;28;102412;-49
2022/07/06 05:38:11;;;;;;;3.83;2.57;;;;;;;21.87;70.36;100855.06;4978928;28;102633;-48
2022/07/06 05:40:38;;;;;;;4.13;2.70;;;;;;;21.89;70.22;100858.31;4986008;28;103906;-49
2022/07/06 05:43:05;;;;;;;3.25;2.95;;;;;;;21.90;70.19;100854.41;4989615;28;102099;-49
2022/07/06 05:45:31;;;;;;;2.30;2.10;;;;;;;21.93;70.30;100858.44;4986661;28;102294;-49
2022/07/06 05:50:43;;;;;;;2.83;2.63;;;;;;;21.96;70.08;100853.03;4983617;28;103901;-49
2022/07/06 05:53:11;;;;;;;3.78;2.72;;;;;;;21.99;70.17;100845.97;4981624;28;102190;-49
2022/07/06 05:55:38;;;;;;;2.58;2.35;;;;;;;22.00;70.23;100850.38;4985872;28;102024;-49
2022/07/06 05:58:04;;;;;;;3.20;2.90;;;;;;;22.02;69.98;100856.34;4980798;28;102219;-50
2022/07/06 06:00:31;;;;;;;2.78;2.47;;;;;;;22.03;70.11;100850.50;4984129;28;103916;-49
2022/07/06 06:02:58;;;;;;;4.80;3.38;;;;;;;22.06;70.01;100846.19;4987299;28;102322;-50
2022/07/06 06:05:25;;;;;;;2.88;2.67;;;;;;;22.06;69.94;100846.19;4994778;28;102139;-49
2022/07/06 06:07:52;;;;;;;3.65;2.58;;;;;;;22.09;69.75;100845.50;4987002;28;103219;-48
2022/07/06 06:10:24;;;;;;;3.40;2.65;;;;;;;22.10;69.84;100849.88;4985486;28;103934;-49
2022/07/06 06:12:50;;;;;;;2.83;2.60;;;;;;;22.10;69.94;100843.53;4983860;28;102180;-49
2022/07/06 06:15:18;;;;;;;3.15;2.85;;;;;;;22.10;69.76;100847.13;4988091;28;101969;-50
2022/07/06 06:17:46;;;;;;;3.20;2.80;;;;;;;22.12;69.85;100850.38;4977633;28;102578;-49
2022/07/06 06:20:14;;;;;;;3.00;2.65;;;;;;;22.13;69.86;100846.44;4993584;28;103863;-49
2022/07/06 06:22:46;;;;;;;2.83;2.53;;;;;;;22.14;69.83;100845.28;4995472;28;102256;-51
2022/07/06 06:25:13;;;;;;;3.30;3.00;;;;;;;22.14;69.77;100838.91;4997530;28;102261;-50
2022/07/06 06:27:40;;;;;;;2.78;2.58;;;;;;;22.15;69.76;100833.06;4985834;28;102385;-51
2022/07/06 06:30:08;;;;;;;3.43;2.70;;;;;;;22.17;69.72;100830.75;4976643;28;107812;-52
2022/07/06 06:32:35;;;;;;;2.70;2.50;;;;;;;22.18;69.56;100837.09;4979163;28;102656;-50
2022/07/06 06:35:02;;;;;;;2.78;2.45;;;;;;;22.20;69.67;100832.03;4997207;28;101819;-50
2022/07/06 06:37:28;;;;;;;3.22;2.92;;;;;;;22.19;69.60;100828.44;4988578;28;102259;-48
2022/07/06 06:39:55;;;;;;;2.80;2.60;;;;;;;22.22;69.47;100832.50;4996499;28;103943;-50
2022/07/06 06:42:22;;;;;;;2.90;2.67;;;;;;;22.24;69.55;100830.16;4997146;28;103662;-51
2022/07/06 06:44:50;;;;;;;3.03;2.67;;;;;;;22.23;69.63;100823.81;4996862;28;102236;-49
2022/07/06 06:47:16;;;;;;;2.70;2.50;;;;;;;22.23;69.60;100828.56;4997930;28;102186;-50
2022/07/06 06:49:43;;;;;;;3.05;2.75;;;;;;;22.23;69.56;100823.81;4996543;28;104017;-48
2022/07/06 06:52:10;;;;;;;2.60;2.40;;;;;;;22.26;69.37;100825.91;4997051;28;102406;-49
2022/07/06 06:54:36;;;;;;;3.10;2.88;;;;;;;22.25;69.55;100815.97;4995287;28;102216;-50
2022/07/06 06:57:03;;;;;;;2.42;2.22;;;;;;;22.26;69.40;100817.59;4997769;28;102210;-48
2022/07/06 06:59:30;;;;;;;2.55;2.35;;;;;;;22.26;69.42;100825.91;4995129;28;103797;-50
2022/07/06 07:01:58;;;;;;;2.55;2.30;;;;;;;22.28;69.31;100818.03;4996926;28;102235;-49
2022/07/06 07:04:25;;;;;;;2.58;2.33;;;;;;;22.30;69.36;100815.72;4996558;28;101974;-48
2022/07/06 07:06:52;;;;;;;2.50;2.30;;;;;;;22.33;69.42;100816.19;4996663;28;102232;-49
2022/07/06 07:09:21;;;;;;;2.67;2.47;;;;;;;22.32;69.40;100818.13;4995861;28;103366;-48
2022/07/06 07:11:48;;;;;;;3.95;2.60;;;;;;;22.33;69.29;100814.22;4981862;28;102125;-49
2022/07/06 07:14:15;;;;;;;3.97;2.70;;;;;;;22.46;67.96;100803.91;4991940;28;102590;-47
2022/07/06 07:16:41;;;;;;;5.60;3.30;;;;;;;22.49;68.69;100814.31;4987818;28;102324;-49
2022/07/06 07:19:09;;;;;;;3.00;2.60;;;;;;;22.41;68.78;100801.41;4988247;28;104122;-49
2022/07/06 07:21:36;;;;;;;2.90;2.53;;;;;;;22.39;68.83;100804.50;4979338;28;102206;-50
2022/07/06 07:24:03;;;;;;;3.20;2.85;;;;;;;22.37;68.94;100809.59;4984943;28;102245;-51
2022/07/06 07:26:29;;;;;;;3.00;2.80;;;;;;;22.38;68.89;100815.94;4998539;28;102079;-49
2022/07/06 07:28:56;;;;;;;3.15;2.85;;;;;;;22.38;68.98;100802.09;4996689;28;103991;-49
2022/07/06 07:31:22;;;;;;;4.28;2.58;;;;;;;22.37;68.88;100808.81;4998132;28;102600;-49
2022/07/06 07:33:49;;;;;;;3.05;2.80;;;;;;;22.36;68.80;100807.16;4994815;28;102718;-49
2022/07/06 07:36:17;;;;;;;2.70;2.50;;;;;;;22.36;68.86;100809.94;4998093;28;102018;-51
2022/07/06 07:38:43;;;;;;;3.00;2.67;;;;;;;22.37;68.97;100811.56;4990140;28;103952;-52
2022/07/06 07:41:11;;;;;;;3.63;2.72;;;;;;;22.39;69.04;100801.72;4985346;28;102320;-49
2022/07/06 07:43:38;;;;;;;3.35;2.63;;;;;;;22.38;68.90;100799.31;4991079;28;102307;-48
2022/07/06 07:46:04;;;;;;;4.35;2.97;;;;;;;22.40;68.82;100805.34;4996619;28;102107;-52
2022/07/06 07:48:31;;;;;;;3.28;2.97;;;;;;;22.39;68.82;100800.91;4995067;28;103886;-49
2022/07/06 07:50:57;;;;;;;3.72;3.20;;;;;;;22.38;68.92;100802.91;4997410;28;101805;-50
2022/07/06 07:53:26;;;;;;;3.05;2.60;;;;;;;22.40;68.90;100805.34;4996441;28;101862;-50
2022/07/06 07:55:53;;;;;;;2.83;2.63;;;;;;;22.39;68.88;100803.69;4998556;28;102258;-49
2022/07/06 07:58:19;;;;;;;2.95;2.65;;;;;;;22.40;68.79;100799.78;4989926;28;103852;-49
2022/07/06 08:00:46;;;;;;;3.00;2.80;;;;;;;22.40;69.02;100805.34;4985704;28;102218;-51
2022/07/06 08:03:13;;;;;;;2.88;2.67;;;;;;;22.40;68.89;100799.78;4995623;28;102453;-49
2022/07/06 08:05:39;;;;;;;3.13;2.85;;;;;;;22.38;68.80;100797.34;4997444;28;102285;-49
2022/07/06 08:08:07;;;;;;;3.25;3.00;;;;;;;22.39;68.71;100798.16;4998774;28;103911;-49
2022/07/06 08:10:35;;;;;;;3.38;2.90;;;;;;;22.38;68.67;100807.63;4995780;28;102022;-51
2022/07/06 08:13:01;;;;;;;4.03;3.13;;;;;;;22.40;68.56;100805.34;4980708;28;102121;-51
2022/07/06 08:15:28;;;;;;;3.55;3.00;;;;;;;22.41;68.69;100802.19;4981699;28;102365;-50
2022/07/06 08:17:55;;;;;;;4.15;3.15;;;;;;;22.40;68.72;100805.34;4993790;28;103922;-51
2022/07/06 08:20:21;;;;;;;3.20;2.90;;;;;;;22.41;68.72;100812.50;5000606;28;101842;-50
2022/07/06 08:22:48;;;;;;;2.90;2.70;;;;;;;22.42;68.71;100808.56;4995160;28;102450;-49
2022/07/06 08:25:14;;;;;;;3.35;3.05;;;;;;;22.42;68.74;100809.34;4995212;28;102911;-49
2022/07/06 08:27:42;;;;;;;3.25;3.00;;;;;;;22.40;68.64;100802.56;4992552;28;103908;-48
2022/07/06 08:30:11;;;;;;;3.13;2.85;;;;;;;22.39;68.81;100803.69;4997383;28;102107;-50
2022/07/06 08:32:38;;;;;;;3.30;3.10;;;;;;;22.38;68.78;100799.31;4993220;28;102151;-49
2022/07/06 08:35:05;;;;;;;3.20;3.00;;;;;;;22.39;68.70;100798.94;4990448;28;102681;-52
2022/07/06 08:37:32;;;;;;;3.10;2.90;;;;;;;22.44;68.61;100800.69;4996639;28;103971;-50
2022/07/06 08:39:58;;;;;;;2.85;2.53;;;;;;;22.45;68.77;100803.09;5000790;28;101754;-55
2022/07/06 08:42:30;;;;;;;3.67;3.38;;;;;;;22.41;68.77;100798.63;4999747;28;101960;-54
2022/07/06 08:44:59;;;;;;;3.20;2.90;;;;;;;22.39;68.44;100798.16;4989581;28;102177;-51
2022/07/06 08:47:27;;;;;;;3.60;3.30;;;;;;;22.39;68.71;100809.25;4981719;28;104066;-50
2022/07/06 08:49:55;;;;;;;3.28;3.08;;;;;;;22.40;68.93;100799.78;4999467;28;102033;-51
2022/07/06 08:52:23;;;;;;;3.33;3.03;;;;;;;22.39;68.69;100798.16;4986997;28;102426;-51
2022/07/06 08:54:49;;;;;;;4.30;3.30;;;;;;;22.41;68.71;100796.66;5000605;28;102177;-52
2022/07/06 08:57:17;;;;;;;4.88;3.08;;;;;;;22.46;68.79;100795.59;4999627;28;104117;-49
2022/07/06 08:59:44;;;;;;;4.38;3.65;;;;;;;22.46;68.56;100798.38;4989802;28;103558;-49
2022/07/06 09:02:13;;;;;;;4.47;3.20;;;;;;;22.42;68.68;100794.69;4985174;28;101990;-50
2022/07/06 09:04:43;;;;;;;3.35;3.05;;;;;;;22.44;68.57;100800.69;4997920;28;102108;-50
2022/07/06 09:07:11;;;;;;;3.53;3.22;;;;;;;22.44;68.53;100795.16;4998656;28;103859;-49
2022/07/06 09:09:41;;;;;;;3.38;3.08;;;;;;;22.43;68.37;100793.50;4994739;28;102141;-51
2022/07/06 09:12:12;;;;;;;3.45;3.22;;;;;;;22.40;68.64;100794.25;4999775;28;101991;-51
2022/07/06 09:14:39;;;;;;;3.30;3.10;;;;;;;22.39;68.75;100798.16;4990905;28;102059;-51
2022/07/06 09:17:06;;;;;;;3.90;3.50;;;;;;;22.39;68.79;100792.59;4998568;28;104498;-50
2022/07/06 09:19:36;;;;;;;3.80;3.15;;;;;;;22.41;68.68;100790.31;4998104;28;101998;-49
2022/07/06 09:22:03;;;;;;;3.72;3.42;;;;;;;22.40;68.90;100785.94;4993234;28;101973;-49
2022/07/06 09:24:31;;;;;;;3.67;3.45;;;;;;;22.40;68.84;100785.94;4996615;28;102190;-50
2022/07/06 09:26:59;;;;;;;3.58;3.28;;;;;;;22.39;68.56;100775.97;4994431;28;103901;-52
2022/07/06 09:29:28;;;;;;;5.30;3.58;;;;;;;22.37;68.52;100778.31;4999564;28;102418;-50
2022/07/06 09:31:58;;;;;;;3.78;3.47;;;;;;;22.38;68.76;100774.38;4997701;28;102485;-51
2022/07/06 09:34:26;;;;;;;3.60;3.30;;;;;;;22.36;68.83;100773.88;4999134;28;102652;-49
2022/07/06 09:36:55;;;;;;;3.60;3.30;;;;;;;22.35;68.93;100770.31;4998489;28;103761;-51
2022/07/06 09:39:23;;;;;;;3.73;3.43;;;;;;;22.34;69.04;100774.25;4999520;28;102211;-50
2022/07/06 09:41:50;;;;;;;;;;;;;;;22.36;68.78;100776.66;4996769;28;102089;-49
2022/07/06 09:44:24;;;;;;;3.22;3.03;;;;;;;22.36;69.00;100771.13;5006082;28;102618;-48
2022/07/06 09:46:51;;;;;;;4.57;3.55;;;;;;;22.34;68.69;100765.13;4998331;28;103871;-48
2022/07/06 09:49:19;;;;;;;5.80;3.75;;;;;;;22.37;68.85;100773.56;4992161;28;102037;-48
2022/07/06 09:51:46;;;;;;;3.40;3.20;;;;;;;22.37;68.97;100759.69;4978313;28;102006;-50
2022/07/06 09:54:15;;;;;;;3.30;3.10;;;;;;;22.37;68.89;100767.22;4980128;28;101996;-50
2022/07/06 09:56:44;;;;;;;3.30;3.10;;;;;;;22.34;69.08;100760.38;4991926;28;103924;-51
2022/07/06 09:59:12;;;;;;;3.70;3.40;;;;;;;22.34;68.79;100762.34;4989304;28;102382;-49
2022/07/06 10:01:39;;;;;;;3.92;3.22;;;;;;;22.37;68.76;100764.44;4991061;28;102228;-50
2022/07/06 10:04:06;;;;;;;3.83;3.53;;;;;;;22.37;69.03;100758.91;4992988;28;102071;-50
2022/07/06 10:06:33;;;;;;;3.75;3.45;;;;;;;22.38;68.66;100757.72;4991256;28;103914;-48
2022/07/06 10:09:00;;;;;;;3.58;3.38;;;;;;;22.38;69.04;100763.28;4990763;28;101929;-51
2022/07/06 10:11:30;;;;;;;4.93;3.28;;;;;;;22.38;69.05;100763.28;4999579;28;102287;-48
2022/07/06 10:13:57;;;;;;;3.60;3.30;;;;;;;22.34;68.97;100754.03;4999342;28;102328;-49
2022/07/06 10:16:25;;;;;;;4.03;3.72;;;;;;;22.30;68.97;100751.97;4998194;28;103857;-48
2022/07/06 10:18:56;;;;;;;3.65;3.35;;;;;;;22.34;68.87;100745.72;4996656;28;102168;-49
2022/07/06 10:21:22;;;;;;;4.20;3.65;;;;;;;22.34;68.98;100751.28;4991800;28;102448;-51
2022/07/06 10:23:50;;;;;;;4.00;3.33;;;;;;;22.36;68.80;100760.03;4991616;28;102182;-49
2022/07/06 10:26:18;;;;;;;4.05;3.72;;;;;;;22.37;68.72;100756.13;4993818;28;103674;-50
2022/07/06 10:28:47;;;;;;;3.70;3.40;;;;;;;22.36;68.94;100760.84;4995977;28;102087;-49
2022/07/06 10:31:14;;;;;;;3.88;3.45;;;;;;;22.35;68.99;100752.88;4997659;28;102020;-48
2022/07/06 10:33:42;;;;;;;4.10;3.70;;;;;;;22.30;68.64;100743.66;4998824;28;102179;-48
2022/07/06 10:36:10;;;;;;;4.00;3.70;;;;;;;22.28;68.73;100748.72;4997368;28;103860;-48
2022/07/06 10:38:36;;;;;;;3.88;3.50;;;;;;;22.27;68.99;100735.22;4997883;28;101964;-49
2022/07/06 10:41:05;;;;;;;4.03;3.72;;;;;;;22.28;68.80;100736.81;4997150;28;101935;-48
2022/07/06 10:43:36;;;;;;;4.15;3.85;;;;;;;22.30;69.08;100735.34;4998871;28;102239;-51
2022/07/06 10:46:10;;;;;;;4.00;3.70;;;;;;;22.31;68.79;100728.63;4997695;28;103916;-48
2022/07/06 10:48:38;;;;;;;3.90;3.60;;;;;;;22.33;68.72;100730.25;4995507;28;102081;-49
2022/07/06 10:51:05;;;;;;;4.22;3.83;;;;;;;22.33;68.80;100733.03;4982715;28;102164;-49
2022/07/06 10:53:34;;;;;;;3.95;3.60;;;;;;;22.34;68.79;100731.88;4988078;28;102335;-50
2022/07/06 10:56:03;;;;;;;4.32;3.67;;;;;;;22.35;68.77;100734.28;4993465;28;103842;-48
2022/07/06 10:58:48;;;;;;;4.05;3.75;;;;;;;22.38;68.88;100732.78;4996051;28;102059;-49
2022/07/06 11:01:16;;;;;;;3.80;3.47;;;;;;;22.33;68.70;100736.59;4994258;28;102120;-47
2022/07/06 11:03:44;;;;;;;3.60;3.40;;;;;;;22.33;68.86;100727.47;4993418;28;103552;-48
2022/07/06 11:06:14;;;;;;;3.80;3.50;;;;;;;22.29;68.65;100722.63;4992549;28;103845;-48
2022/07/06 11:08:55;;;;;;;4.57;4.18;;;;;;;22.29;68.74;100717.09;4991600;28;102093;-50
2022/07/06 11:11:23;;;;;;;4.15;3.85;;;;;;;22.34;68.73;100709.69;4997507;28;103764;-49
2022/07/06 11:13:56;;;;;;;3.90;3.60;;;;;;;22.35;68.90;100725.16;4997284;28;102130;-48
2022/07/06 11:16:26;;;;;;;4.70;4.30;;;;;;;22.27;68.25;100707.50;4997210;28;103752;-48
2022/07/06 11:19:05;;;;;;;4.57;4.18;;;;;;;22.29;68.78;100703.22;4996797;28;102182;-49
2022/07/06 11:21:45;;;;;;;4.53;4.13;;;;;;;22.29;68.59;100700.47;4990556;28;103011;-47